Time;durP1;ratioP1;P1;durP2;ratioP2;P2;SDS_P1;SDS_P2;PMS_P1;PMS_P2;Temp;Humidity;BMP_temperature;BMP_pressure;BME280_temperature;BME280_humidity;BME280_pressure;Samples;Min_cycle;Max_cycle;Signal;HPM_P1;HPM_P2
2022/06/25 00:01:03;;;;;;;4.93;1.80;;;;;;;22.55;45.82;99835.78;6212519;23;20009;-63
2022/06/25 00:03:28;;;;;;;6.22;2.05;;;;;;;22.62;45.80;99854.84;6212430;23;20012;-63
2022/06/25 00:05:53;;;;;;;6.35;1.95;;;;;;;22.61;45.43;99853.19;6211103;23;20303;-63
2022/06/25 00:08:19;;;;;;;8.30;1.95;;;;;;;22.58;46.27;99853.63;6212689;23;20004;-61
2022/06/25 00:10:44;;;;;;;7.80;2.30;;;;;;;22.46;47.09;99834.34;6212878;23;20369;-61
2022/06/25 00:13:10;;;;;;;3.25;2.30;;;;;;;22.55;47.24;99849.47;6212985;23;20008;-61
2022/06/25 00:15:35;;;;;;;5.63;2.30;;;;;;;22.47;47.46;99841.47;6212576;23;20066;-62
2022/06/25 00:18:01;;;;;;;6.57;1.88;;;;;;;22.45;47.49;99849.09;6212326;23;20015;-63
2022/06/25 00:20:26;;;;;;;8.20;2.22;;;;;;;22.40;47.79;99848.91;6212192;23;20016;-61
2022/06/25 00:22:52;;;;;;;7.68;2.30;;;;;;;22.37;48.13;99848.53;6212611;23;20418;-62
2022/06/25 00:25:17;;;;;;;6.97;2.33;;;;;;;22.29;48.53;99844.16;6212251;23;20008;-63
2022/06/25 00:27:43;;;;;;;7.97;2.33;;;;;;;22.28;48.41;99845.25;6212602;23;20016;-63
2022/06/25 00:30:09;;;;;;;7.38;2.38;;;;;;;22.25;48.61;99846.50;6212174;23;20004;-63
2022/06/25 00:32:34;;;;;;;11.20;2.17;;;;;;;22.19;48.65;99841.91;6212312;23;20028;-61
2022/06/25 00:35:01;;;;;;;6.78;2.38;;;;;;;22.19;49.00;99839.19;6212329;23;20058;-61
2022/06/25 00:37:26;;;;;;;4.60;2.22;;;;;;;22.11;49.16;99827.69;6212133;23;20021;-63
2022/06/25 00:39:52;;;;;;;7.50;2.60;;;;;;;22.11;49.40;99830.41;6212510;23;20422;-62
2022/06/25 00:42:18;;;;;;;11.13;2.35;;;;;;;22.06;49.72;99827.53;6212407;23;20083;-63
2022/06/25 00:44:44;;;;;;;8.68;2.47;;;;;;;22.01;49.16;99824.59;6212565;23;20008;-62
2022/06/25 00:47:12;;;;;;;13.07;2.38;;;;;;;22.03;48.93;99836.16;6185946;23;20604;-63
2022/06/25 00:49:38;;;;;;;7.00;2.63;;;;;;;22.01;48.99;99841.84;6212402;23;20050;-63
2022/06/25 00:52:07;;;;;;;7.45;2.50;;;;;;;21.95;49.09;99837.25;6211994;23;20031;-61
2022/06/25 00:54:36;;;;;;;8.55;2.17;;;;;;;21.88;49.16;99831.00;6211972;23;20434;-63
2022/06/25 00:57:04;;;;;;;12.20;2.65;;;;;;;21.81;49.06;99840.28;6212153;23;20013;-63
2022/06/25 00:59:36;;;;;;;8.10;2.20;;;;;;;21.78;48.79;99835.25;6212259;23;20707;-62
2022/06/25 01:02:02;;;;;;;8.55;2.13;;;;;;;21.74;47.01;99823.09;6212053;23;20095;-63
2022/06/25 01:04:29;;;;;;;5.25;2.28;;;;;;;21.71;46.07;99826.22;6211936;23;20008;-61
2022/06/25 01:06:54;;;;;;;4.80;2.03;;;;;;;21.84;45.24;99848.03;6212225;23;19997;-62
2022/06/25 01:09:20;;;;;;;5.95;1.95;;;;;;;21.90;44.41;99845.25;6212049;23;20011;-61
2022/06/25 01:11:45;;;;;;;8.75;2.10;;;;;;;21.96;43.65;99844.38;6212065;23;20051;-63
2022/06/25 01:14:11;;;;;;;5.00;1.75;;;;;;;22.02;43.25;99834.47;6212164;23;20060;-62
2022/06/25 01:16:37;;;;;;;5.85;1.77;;;;;;;21.98;43.03;99830.50;6211802;23;20015;-61
2022/06/25 01:19:11;;;;;;;4.35;2.13;;;;;;;22.11;42.77;99833.16;6211873;23;20085;-63
2022/06/25 01:21:37;;;;;;;4.50;1.85;;;;;;;22.19;42.31;99844.63;6212146;23;20012;-63
2022/06/25 01:24:06;;;;;;;4.15;1.83;;;;;;;22.25;42.18;99830.09;6211823;23;20519;-62
2022/06/25 01:26:36;;;;;;;2.58;1.88;;;;;;;22.27;42.27;99825.25;6211952;23;19997;-63
2022/06/25 01:29:03;;;;;;;4.30;2.17;;;;;;;22.32;42.26;99830.06;6211722;23;20031;-62
2022/06/25 01:31:29;;;;;;;2.20;1.75;;;;;;;22.35;42.36;99832.34;6211844;23;20315;-62
2022/06/25 01:33:55;;;;;;;5.10;2.03;;;;;;;22.33;42.37;99824.38;6211887;23;20001;-61
2022/06/25 01:36:21;;;;;;;2.83;2.08;;;;;;;22.42;42.64;99821.34;6211638;23;20089;-63
2022/06/25 01:38:46;;;;;;;6.22;2.05;;;;;;;22.45;42.72;99821.75;6185187;23;20065;-63
2022/06/25 01:41:12;;;;;;;3.50;1.95;;;;;;;22.51;42.62;99825.53;6211956;23;20008;-62
2022/06/25 01:43:37;;;;;;;3.20;2.15;;;;;;;22.52;42.91;99828.03;6212091;23;20086;-63
2022/06/25 01:46:04;;;;;;;5.03;2.08;;;;;;;22.50;42.79;99821.13;6211696;23;20320;-62
2022/06/25 01:48:29;;;;;;;4.32;2.13;;;;;;;22.55;42.88;99826.75;6184759;23;20020;-62
2022/06/25 01:50:55;;;;;;;7.45;2.25;;;;;;;22.56;43.14;99829.25;6211716;23;20612;-62
2022/06/25 01:53:20;;;;;;;8.55;2.28;;;;;;;22.53;42.82;99824.22;6211405;23;20036;-61
2022/06/25 01:55:46;;;;;;;2.72;1.88;;;;;;;22.59;43.35;99827.97;6211217;23;20016;-63
2022/06/25 01:58:11;;;;;;;3.75;2.38;;;;;;;22.62;43.11;99827.50;6211671;23;20015;-63
2022/06/25 02:00:37;;;;;;;4.40;2.15;;;;;;;22.55;43.45;99815.81;6211305;23;20366;-62
2022/06/25 02:03:03;;;;;;;8.70;2.20;;;;;;;22.59;43.41;99822.50;6211239;23;20404;-61
2022/06/25 02:08:15;;;;;;;4.10;2.20;;;;;;;22.68;43.42;99832.09;6211876;23;20067;-63
2022/06/25 02:10:45;;;;;;;4.68;2.22;;;;;;;22.72;43.52;99839.63;6211462;23;20445;-62
2022/06/25 02:13:11;;;;;;;5.38;2.10;;;;;;;22.74;43.57;99834.78;6211288;23;20406;-63
2022/06/25 02:15:36;;;;;;;4.07;1.75;;;;;;;22.77;43.53;99833.50;6211089;23;20009;-61
2022/06/25 02:18:02;;;;;;;5.80;2.25;;;;;;;22.77;43.56;99837.06;6209696;23;20012;-64
2022/06/25 02:20:28;;;;;;;8.13;2.53;;;;;;;22.78;43.66;99832.41;6211230;23;20011;-62
2022/06/25 02:22:53;;;;;;;5.18;2.35;;;;;;;22.77;43.50;99830.75;6211428;23;20004;-62
2022/06/25 02:25:19;;;;;;;4.93;2.28;;;;;;;22.78;43.67;99841.47;6210847;23;20361;-62
2022/06/25 02:27:44;;;;;;;5.00;2.03;;;;;;;22.78;43.72;99830.53;6211420;23;20031;-63
2022/06/25 02:30:10;;;;;;;5.68;2.30;;;;;;;22.79;43.81;99839.59;6211529;23;20047;-63
2022/06/25 02:32:36;;;;;;;6.35;2.55;;;;;;;22.80;44.05;99841.25;6210916;23;20346;-61
2022/06/25 02:35:02;;;;;;;7.32;2.75;;;;;;;22.81;44.06;99851.13;6211088;23;20005;-61
2022/06/25 02:37:28;;;;;;;5.22;2.88;;;;;;;22.80;44.10;99850.28;6210947;23;20011;-63
2022/06/25 02:39:54;;;;;;;5.35;2.28;;;;;;;22.82;44.22;99855.53;6211090;23;20381;-63
2022/06/25 02:42:19;;;;;;;5.97;2.40;;;;;;;22.81;44.54;99848.38;6211096;23;20697;-63
2022/06/25 02:44:45;;;;;;;8.15;2.42;;;;;;;22.81;44.80;99848.38;6211270;23;20050;-61
2022/06/25 02:47:10;;;;;;;5.88;2.40;;;;;;;22.83;45.13;99858.03;6211270;23;20012;-62
2022/06/25 02:49:36;;;;;;;6.38;2.60;;;;;;;22.80;45.82;99861.22;6211247;23;20005;-62
2022/06/25 02:52:01;;;;;;;3.33;2.35;;;;;;;22.81;46.13;99856.59;6211191;23;20404;-61
2022/06/25 02:54:26;;;;;;;8.32;3.10;;;;;;;22.86;46.48;99856.75;6210791;23;20008;-61
2022/06/25 02:59:40;;;;;;;5.90;2.75;;;;;;;22.84;45.85;99856.97;6211385;23;20449;-63
2022/06/25 03:02:06;;;;;;;4.78;2.47;;;;;;;22.83;45.56;99851.75;6184452;23;19996;-63
2022/06/25 03:04:32;;;;;;;8.27;2.95;;;;;;;22.76;45.50;99843.56;6211341;23;20001;-61
2022/06/25 03:06:57;;;;;;;4.88;2.47;;;;;;;22.79;45.34;99853.25;6211291;23;20001;-63
2022/06/25 03:09:23;;;;;;;5.82;2.60;;;;;;;22.80;45.45;99850.28;6211618;23;20072;-62
2022/06/25 03:11:49;;;;;;;8.07;2.60;;;;;;;22.81;45.66;99854.69;6211684;23;20013;-63
2022/06/25 03:14:15;;;;;;;6.22;2.97;;;;;;;22.84;45.41;99853.41;6211308;23;20011;-63
2022/06/25 03:16:41;;;;;;;7.72;2.63;;;;;;;22.82;45.08;99858.28;6211093;23;20311;-61
2022/06/25 03:19:08;;;;;;;6.78;3.40;;;;;;;22.81;45.36;99851.97;6210952;23;20008;-62
2022/06/25 03:21:33;;;;;;;11.40;2.72;;;;;;;22.72;45.44;99842.34;6210825;23;20358;-61
2022/06/25 03:23:59;;;;;;;4.63;2.90;;;;;;;22.75;45.92;99852.00;6210724;23;19997;-61
2022/06/25 03:26:24;;;;;;;7.07;3.00;;;;;;;22.76;45.92;99845.50;6210855;23;20008;-63
2022/06/25 03:28:50;;;;;;;8.00;2.97;;;;;;;22.69;46.11;99834.59;6210818;23;20442;-61
2022/06/25 03:31:16;;;;;;;7.85;2.90;;;;;;;22.66;46.56;99837.78;6208996;23;20012;-62
2022/06/25 03:33:41;;;;;;;7.97;3.22;;;;;;;22.71;47.00;99848.06;6211082;23;20008;-62
2022/06/25 03:36:07;;;;;;;7.53;3.20;;;;;;;22.62;47.03;99838.44;6210615;23;20429;-63
2022/06/25 03:38:33;;;;;;;4.32;2.85;;;;;;;22.63;47.04;99842.88;6210729;23;20000;-63
2022/06/25 03:43:43;;;;;;;6.45;3.50;;;;;;;22.64;47.51;99847.28;6211086;23;20012;-63
2022/06/25 03:46:08;;;;;;;5.85;2.80;;;;;;;22.69;47.70;99856.47;6208205;23;20476;-62
2022/06/25 03:48:34;;;;;;;6.40;2.90;;;;;;;22.73;47.98;99859.63;6210578;23;20001;-61
2022/06/25 03:50:59;;;;;;;10.38;3.72;;;;;;;22.75;48.30;99861.06;6210444;23;20004;-62
2022/06/25 03:53:24;;;;;;;9.52;3.30;;;;;;;22.75;48.65;99852.00;6210590;23;20012;-63
2022/06/25 03:55:50;;;;;;;10.88;3.25;;;;;;;22.77;47.91;99856.22;6210349;23;20012;-62
2022/06/25 03:58:16;;;;;;;17.55;3.20;;;;;;;22.72;48.03;99849.72;6210507;23;20421;-62
2022/06/25 04:00:41;;;;;;;11.70;3.50;;;;;;;22.70;48.28;99851.84;6210752;23;20031;-62
2022/06/25 04:03:06;;;;;;;13.77;3.35;;;;;;;22.71;48.71;99868.03;6210613;23;20016;-62
2022/06/25 04:05:32;;;;;;;10.13;2.85;;;;;;;22.69;48.55;99861.13;6210485;23;20024;-63
2022/06/25 04:07:57;;;;;;;8.85;3.20;;;;;;;22.71;48.87;99869.94;6209032;23;20008;-63
2022/06/25 04:10:23;;;;;;;13.57;3.58;;;;;;;22.72;49.65;99866.13;6210361;23;20028;-62
2022/06/25 04:12:48;;;;;;;7.28;3.40;;;;;;;22.75;49.86;99872.00;6210645;23;20059;-63
2022/06/25 04:15:14;;;;;;;7.65;3.40;;;;;;;22.80;49.63;99863.97;6210546;23;20012;-62
2022/06/25 04:17:40;;;;;;;6.43;2.80;;;;;;;22.79;48.83;99856.81;6210477;23;20109;-61
2022/06/25 04:20:06;;;;;;;5.93;3.05;;;;;;;22.83;48.51;99852.56;6210473;23;20028;-61
2022/06/25 04:22:31;;;;;;;12.73;3.30;;;;;;;22.91;47.67;99855.03;6210437;23;20012;-62
2022/06/25 04:24:57;;;;;;;8.45;3.40;;;;;;;22.88;47.02;99840.94;6210369;23;20018;-62
2022/06/25 04:30:14;;;;;;;14.30;3.30;;;;;;;23.02;47.43;99851.53;6211459;23;20051;-63
2022/06/25 04:32:39;;;;;;;6.10;3.00;;;;;;;23.08;47.87;99858.84;6212617;23;20008;-62
2022/06/25 04:35:06;;;;;;;5.97;3.15;;;;;;;23.17;47.91;99868.44;6185393;23;20016;-63
2022/06/25 04:37:31;;;;;;;11.25;3.30;;;;;;;23.22;47.49;99856.81;6212273;23;20496;-62
2022/06/25 04:39:56;;;;;;;9.63;3.03;;;;;;;23.46;47.25;99870.44;6212647;23;20008;-63
2022/06/25 04:42:22;;;;;;;6.43;3.35;;;;;;;23.58;46.51;99862.31;6212488;23;20017;-63
2022/06/25 04:44:47;;;;;;;3.65;3.15;;;;;;;23.71;46.21;99865.72;6212496;23;20070;-62
2022/06/25 04:47:13;;;;;;;6.30;3.58;;;;;;;23.95;45.56;99870.28;6212326;23;20000;-63
2022/06/25 04:49:38;;;;;;;9.20;3.20;;;;;;;24.14;45.32;99869.16;6212218;23;20001;-63
2022/06/25 04:52:04;;;;;;;4.90;2.67;;;;;;;24.37;44.80;99869.22;6212137;23;20322;-61
2022/06/25 04:54:29;;;;;;;8.77;3.42;;;;;;;24.57;44.17;99866.19;6212012;23;20405;-61
2022/06/25 04:56:55;;;;;;;3.67;2.35;;;;;;;24.82;43.34;99857.78;6211984;23;20004;-61
2022/06/25 04:59:20;;;;;;;6.35;2.83;;;;;;;24.99;42.95;99861.47;6212447;23;20024;-62
2022/06/25 05:01:46;;;;;;;5.10;2.83;;;;;;;25.13;42.52;99847.28;6212081;23;20004;-64
2022/06/25 05:04:12;;;;;;;5.90;2.97;;;;;;;25.32;42.72;99869.94;6212331;23;20735;-62
2022/06/25 05:06:38;;;;;;;7.55;3.00;;;;;;;25.41;42.39;99857.53;6211894;23;20422;-62
2022/06/25 05:09:04;;;;;;;10.43;2.90;;;;;;;25.63;42.22;99859.38;6211880;23;20032;-63
2022/06/25 05:11:29;;;;;;;6.78;2.92;;;;;;;25.85;41.50;99862.28;6211816;23;20008;-63
2022/06/25 05:13:55;;;;;;;4.75;2.97;;;;;;;25.98;41.19;99851.88;6211841;23;20005;-63
2022/06/25 05:16:20;;;;;;;4.60;2.90;;;;;;;26.05;41.13;99838.00;6184726;23;20061;-62
2022/06/25 05:18:47;;;;;;;3.03;2.17;;;;;;;26.27;40.85;99841.69;6185287;23;20023;-63
2022/06/25 05:21:13;;;;;;;4.35;3.03;;;;;;;26.51;40.17;99859.75;6185356;23;20023;-63
2022/06/25 05:23:39;;;;;;;4.97;3.10;;;;;;;26.58;40.13;99856.81;6211929;23;20426;-63
2022/06/25 05:26:05;;;;;;;10.30;3.13;;;;;;;26.69;39.86;99865.03;6211597;23;20000;-63
2022/06/25 05:28:30;;;;;;;4.40;2.58;;;;;;;26.81;39.73;99868.53;6211817;23;20008;-63
2022/06/25 05:30:56;;;;;;;5.78;2.92;;;;;;;26.94;39.86;99872.84;6211587;23;20076;-63
2022/06/25 05:33:22;;;;;;;6.82;3.03;;;;;;;27.08;39.79;99875.00;6211865;23;20054;-63
2022/06/25 05:35:47;;;;;;;8.35;2.92;;;;;;;27.16;40.00;99876.50;6212276;23;20023;-63
2022/06/25 05:38:13;;;;;;;6.78;2.70;;;;;;;27.20;39.97;99873.00;6211319;23;20039;-64
2022/06/25 05:40:39;;;;;;;4.93;2.75;;;;;;;27.26;39.76;99866.50;6212017;23;20949;-62
2022/06/25 05:43:04;;;;;;;8.18;2.85;;;;;;;27.46;39.90;99879.72;6185216;23;20016;-63
2022/06/25 05:45:30;;;;;;;7.57;2.90;;;;;;;27.57;39.61;99876.84;6211532;23;20015;-62
2022/06/25 05:47:56;;;;;;;9.85;3.50;;;;;;;27.69;39.46;99872.06;6211915;23;20008;-63
2022/06/25 05:50:21;;;;;;;8.20;2.83;;;;;;;27.72;39.41;99881.72;6211751;23;20004;-63
2022/06/25 05:52:47;;;;;;;9.52;3.08;;;;;;;27.89;38.91;99894.38;6211783;23;20005;-62
2022/06/25 05:55:12;;;;;;;5.93;2.85;;;;;;;27.98;38.81;99909.41;6211193;23;20020;-63
2022/06/25 05:57:38;;;;;;;4.72;2.70;;;;;;;28.06;38.68;99916.38;6211772;23;20017;-62
2022/06/25 06:00:05;;;;;;;5.75;2.97;;;;;;;28.17;39.21;99918.16;6184933;23;20009;-62
2022/06/25 06:02:31;;;;;;;8.35;2.90;;;;;;;28.22;39.41;99915.47;6184664;23;20087;-63
2022/06/25 06:04:56;;;;;;;5.88;2.55;;;;;;;28.30;39.40;99904.81;6211589;23;20004;-62
2022/06/25 06:07:22;;;;;;;6.68;2.95;;;;;;;28.41;39.25;99906.56;6211541;23;20007;-64
2022/06/25 06:09:47;;;;;;;5.75;2.67;;;;;;;28.61;39.15;99896.84;6211762;23;20067;-63
2022/06/25 06:12:13;;;;;;;5.82;2.70;;;;;;;28.75;38.58;99909.97;6211759;23;20013;-63
2022/06/25 06:14:39;;;;;;;8.77;2.90;;;;;;;28.90;38.99;99900.97;6211430;23;20078;-62
2022/06/25 06:17:04;;;;;;;5.13;2.97;;;;;;;29.00;38.39;99901.91;6211391;23;20000;-62
2022/06/25 06:19:30;;;;;;;5.15;3.10;;;;;;;29.03;38.55;99887.59;6184581;23;20005;-63
2022/06/25 06:21:55;;;;;;;10.63;3.20;;;;;;;29.13;38.32;99898.72;6211420;23;20017;-63
2022/06/25 06:24:20;;;;;;;6.65;3.63;;;;;;;29.20;38.55;99899.31;6211289;23;20008;-62
2022/06/25 06:26:46;;;;;;;4.90;2.90;;;;;;;29.40;38.19;99893.09;6211605;23;20455;-63
2022/06/25 06:29:11;;;;;;;5.22;2.90;;;;;;;29.47;38.43;99888.97;6211034;23;20000;-64
2022/06/25 06:31:37;;;;;;;7.53;3.17;;;;;;;29.51;37.69;99876.31;6211225;23;20008;-63
2022/06/25 06:34:02;;;;;;;9.55;3.65;;;;;;;29.71;37.71;99892.19;6211175;23;20058;-62
2022/06/25 06:39:49;;;;;;;8.80;3.15;;;;;;;29.99;37.65;99877.94;6208350;23;20464;-63
2022/06/25 06:42:15;;;;;;;5.75;2.92;;;;;;;30.12;37.29;99888.50;6210819;23;20012;-64
2022/06/25 06:44:40;;;;;;;4.25;2.88;;;;;;;30.21;37.02;99895.19;6211398;23;20005;-62
2022/06/25 06:47:06;;;;;;;9.73;3.72;;;;;;;30.30;37.43;99891.59;6211211;23;20007;-63
2022/06/25 06:49:31;;;;;;;8.60;2.75;;;;;;;30.40;37.04;99894.41;6211269;23;20008;-64
2022/06/25 06:51:57;;;;;;;5.35;3.10;;;;;;;30.41;37.17;99884.97;6211233;23;20017;-64
2022/06/25 06:54:22;;;;;;;9.10;3.28;;;;;;;30.51;37.04;99873.09;6211256;23;20426;-64
2022/06/25 06:56:48;;;;;;;5.03;3.50;;;;;;;30.71;36.95;99891.66;6210936;23;20020;-65
2022/06/25 06:59:13;;;;;;;6.47;3.17;;;;;;;30.86;36.53;99898.09;6211767;23;20016;-64
2022/06/25 07:01:38;;;;;;;9.80;3.90;;;;;;;30.92;37.06;99896.97;6211094;23;20004;-63
2022/06/25 07:04:04;;;;;;;5.57;3.45;;;;;;;31.02;36.97;99893.38;6211016;23;20082;-64
2022/06/25 07:06:30;;;;;;;5.22;3.40;;;;;;;31.03;36.96;99895.03;6210981;23;20001;-64
2022/06/25 07:08:55;;;;;;;8.63;3.42;;;;;;;31.15;37.07;99892.81;6210611;23;20076;-63
2022/06/25 07:11:30;;;;;;;9.50;3.58;;;;;;;31.27;36.69;99896.16;6211012;23;20008;-63
2022/06/25 07:13:57;;;;;;;9.18;3.80;;;;;;;31.18;36.87;99886.69;6210815;23;20043;-62
2022/06/25 07:16:22;;;;;;;8.68;3.45;;;;;;;31.30;37.03;99895.59;6210747;23;20001;-63
2022/06/25 07:18:49;;;;;;;6.10;3.20;;;;;;;31.36;37.12;99889.75;6210750;23;20485;-63
2022/06/25 07:21:15;;;;;;;7.70;3.60;;;;;;;31.43;37.46;99884.72;6211086;23;20012;-63
2022/06/25 07:23:40;;;;;;;5.90;3.20;;;;;;;31.48;37.35;99875.56;6209946;23;20317;-64
2022/06/25 07:26:06;;;;;;;10.95;3.78;;;;;;;31.57;37.46;99882.22;6210337;23;19997;-62
2022/06/25 07:28:31;;;;;;;10.18;3.65;;;;;;;31.63;36.97;99878.31;6211283;23;20007;-63
2022/06/25 07:30:57;;;;;;;7.65;3.33;;;;;;;31.67;36.97;99874.69;6210109;23;20075;-62
2022/06/25 07:33:22;;;;;;;7.78;3.13;;;;;;;31.80;37.29;99882.44;6211469;23;20406;-63
2022/06/25 07:35:48;;;;;;;8.43;3.78;;;;;;;31.88;37.22;99881.84;6210802;23;20415;-62
2022/06/25 07:38:13;;;;;;;6.65;4.00;;;;;;;31.93;37.10;99884.59;6211077;23;20394;-65
2022/06/25 07:40:39;;;;;;;9.32;3.58;;;;;;;32.04;36.91;99885.38;6211177;23;20012;-62
2022/06/25 07:43:04;;;;;;;8.05;3.53;;;;;;;32.13;36.89;99883.66;6211007;23;20176;-63
2022/06/25 07:45:29;;;;;;;6.53;3.30;;;;;;;32.24;36.54;99888.88;6211028;23;20015;-62
2022/06/25 07:47:55;;;;;;;12.18;3.50;;;;;;;32.26;36.54;99888.59;6211024;23;20004;-66
2022/06/25 07:53:04;;;;;;;;;;;;;;;32.42;36.47;99895.72;6211676;23;20054;-63
2022/06/25 07:55:30;;;;;;;7.82;2.92;;;;;;;32.58;35.94;99881.47;6210690;23;19920;-64
2022/06/25 07:57:55;;;;;;;9.52;3.72;;;;;;;32.61;36.27;99891.16;6211465;23;20480;-63
2022/06/25 08:00:22;;;;;;;7.38;3.60;;;;;;;32.73;36.15;99893.56;6211089;23;20319;-64
2022/06/25 08:02:48;;;;;;;10.70;3.75;;;;;;;32.73;36.37;99899.13;6212824;23;20901;-64
2022/06/25 08:05:13;;;;;;;13.23;4.10;;;;;;;32.75;36.45;99896.91;6186804;23;20004;-64
2022/06/25 08:07:38;;;;;;;9.07;3.42;;;;;;;32.80;36.25;99889.34;6213441;23;20464;-64
2022/06/25 08:10:05;;;;;;;10.43;4.30;;;;;;;32.88;36.27;99897.09;6213136;23;20044;-62
2022/06/25 08:12:30;;;;;;;12.57;4.18;;;;;;;32.96;36.25;99895.66;6213027;23;20043;-64
2022/06/25 08:14:55;;;;;;;8.02;3.80;;;;;;;32.99;35.68;99901.47;6213067;23;20795;-64
2022/06/25 08:17:21;;;;;;;8.80;3.70;;;;;;;33.03;35.64;99896.13;6212802;23;19996;-62
2022/06/25 08:19:46;;;;;;;7.45;3.97;;;;;;;33.08;35.53;99899.72;6212735;23;20016;-64
2022/06/25 08:22:12;;;;;;;11.70;4.35;;;;;;;33.11;35.68;99889.97;6212879;23;20032;-64
2022/06/25 08:24:37;;;;;;;6.50;3.60;;;;;;;33.27;35.73;99906.19;6212858;23;20123;-64
2022/06/25 08:27:03;;;;;;;10.20;4.10;;;;;;;33.35;35.69;99908.34;6212811;23;20009;-64
2022/06/25 08:29:28;;;;;;;8.98;4.03;;;;;;;33.45;35.66;99899.09;6212825;23;20000;-64
2022/06/25 08:31:54;;;;;;;13.95;4.20;;;;;;;33.48;35.61;99909.63;6213184;23;20016;-64
2022/06/25 08:34:20;;;;;;;6.82;3.92;;;;;;;33.53;35.35;99904.03;6212333;23;20091;-63
2022/06/25 08:36:45;;;;;;;9.60;3.78;;;;;;;33.62;35.62;99896.69;6212669;23;20000;-63
2022/06/25 08:39:11;;;;;;;12.52;3.50;;;;;;;33.70;34.99;99904.38;6212536;23;20012;-64
2022/06/25 08:41:37;;;;;;;8.38;3.63;;;;;;;33.77;35.03;99910.41;6212636;23;20066;-64
2022/06/25 08:44:02;;;;;;;12.35;4.45;;;;;;;33.77;34.85;99908.47;6185810;23;20047;-64
2022/06/25 08:46:28;;;;;;;9.60;3.97;;;;;;;33.75;35.58;99912.69;6212749;23;20012;-64
2022/06/25 08:48:56;;;;;;;12.57;4.45;;;;;;;33.76;35.43;99909.56;6212573;23;20055;-63
2022/06/25 08:51:26;;;;;;;12.05;4.32;;;;;;;33.85;35.08;99912.56;6212590;23;20001;-63
2022/06/25 08:53:53;;;;;;;7.40;4.20;;;;;;;33.90;35.63;99907.78;6212544;23;20004;-63
2022/06/25 08:56:19;;;;;;;14.50;4.10;;;;;;;33.96;35.73;99916.91;6212131;23;20013;-64
2022/06/25 08:58:44;;;;;;;9.40;3.67;;;;;;;33.97;35.59;99919.38;6186088;23;20012;-63
2022/06/25 09:01:10;;;;;;;11.63;4.47;;;;;;;34.02;35.41;99912.94;6212666;23;20036;-63
2022/06/25 09:03:37;;;;;;;8.85;3.60;;;;;;;34.09;35.73;99921.75;6212267;23;20008;-63
2022/06/25 09:06:20;;;;;;;9.98;3.83;;;;;;;34.14;35.33;99921.69;6185699;23;20007;-64
2022/06/25 09:09:06;;;;;;;10.05;3.97;;;;;;;34.19;34.71;99918.81;6212650;23;20011;-64
2022/06/25 09:11:31;;;;;;;8.10;3.95;;;;;;;34.11;34.74;99917.53;6185349;23;20330;-64
2022/06/25 09:14:20;;;;;;;9.43;4.10;;;;;;;34.16;34.70;99927.78;6211933;23;20013;-64
2022/06/25 09:16:55;;;;;;;12.02;4.22;;;;;;;34.24;34.68;99935.47;6212045;23;20426;-64
2022/06/25 09:19:29;;;;;;;12.95;4.20;;;;;;;34.20;35.05;99931.59;6212451;23;20015;-64
2022/06/25 09:21:54;;;;;;;9.73;3.80;;;;;;;34.28;34.51;99934.59;6212390;23;20035;-63
2022/06/25 09:24:20;;;;;;;9.25;4.07;;;;;;;34.12;34.97;99924.78;6212037;23;20000;-64
2022/06/25 09:26:52;;;;;;;6.88;3.90;;;;;;;34.05;34.92;99940.19;6212332;23;20016;-63
2022/06/25 09:29:18;;;;;;;12.77;4.25;;;;;;;33.93;35.03;99943.38;6212056;23;20005;-63
2022/06/25 09:31:43;;;;;;;9.48;4.07;;;;;;;33.80;35.61;99951.56;6212131;23;20004;-64
2022/06/25 09:34:09;;;;;;;8.48;3.85;;;;;;;33.62;35.51;99944.00;6211937;23;20004;-63
2022/06/25 09:36:36;;;;;;;11.70;4.10;;;;;;;33.57;35.79;99944.03;6211841;23;20342;-64
2022/06/25 09:39:02;;;;;;;7.82;3.72;;;;;;;33.42;36.43;99938.59;6212078;23;20011;-63
2022/06/25 09:41:47;;;;;;;8.25;3.90;;;;;;;33.34;36.56;99944.78;6212149;23;20083;-63
2022/06/25 09:44:18;;;;;;;7.13;3.88;;;;;;;33.27;36.70;99935.97;6211763;23;20122;-64
2022/06/25 09:46:57;;;;;;;8.95;4.15;;;;;;;33.31;36.99;99940.66;6211902;23;20410;-63
2022/06/25 09:49:26;;;;;;;7.80;3.80;;;;;;;33.38;36.30;99935.59;6211792;23;20070;-64
2022/06/25 09:51:59;;;;;;;9.10;3.25;;;;;;;33.28;36.38;99934.84;6211960;23;20007;-63
2022/06/25 09:54:24;;;;;;;7.07;3.65;;;;;;;33.27;36.69;99922.88;6211966;23;20076;-63
2022/06/25 09:56:50;;;;;;;9.27;3.60;;;;;;;33.29;36.63;99922.56;6211587;23;20422;-64
2022/06/25 09:59:16;;;;;;;10.52;3.20;;;;;;;33.29;37.02;99920.63;6212268;23;20079;-63
2022/06/25 10:01:42;;;;;;;10.27;3.83;;;;;;;33.38;36.77;99912.50;6211770;23;20005;-64
2022/06/25 10:04:08;;;;;;;10.55;4.18;;;;;;;33.40;36.33;99899.16;6211775;23;20015;-63
2022/06/25 10:06:35;;;;;;;11.60;3.72;;;;;;;33.49;36.18;99901.00;6206283;23;20001;-64
2022/06/25 10:09:04;;;;;;;10.00;3.70;;;;;;;33.46;35.77;99892.41;6211879;23;20440;-63
2022/06/25 10:11:31;;;;;;;12.40;4.28;;;;;;;33.45;35.73;99897.16;6208481;23;20013;-63
2022/06/25 10:13:57;;;;;;;15.38;4.30;;;;;;;33.45;35.86;99902.72;6209665;23;20019;-64
2022/06/25 10:16:25;;;;;;;11.35;3.65;;;;;;;33.54;35.24;99888.97;6209236;23;20047;-63
2022/06/25 10:18:51;;;;;;;7.47;3.80;;;;;;;33.31;35.90;99887.81;6209598;23;20390;-62
2022/06/25 10:21:19;;;;;;;12.00;3.85;;;;;;;33.07;36.54;99866.66;6209508;23;20096;-63
2022/06/25 10:23:45;;;;;;;6.78;3.30;;;;;;;33.12;36.69;99886.03;6183075;23;20008;-64
2022/06/25 10:26:12;;;;;;;13.40;3.65;;;;;;;33.08;36.57;99869.13;6209808;23;20013;-63
2022/06/25 10:28:37;;;;;;;10.60;4.30;;;;;;;33.08;36.70;99890.53;6210495;23;20008;-63
2022/06/25 10:31:10;;;;;;;8.15;3.45;;;;;;;33.09;36.49;99881.91;6209570;23;20016;-63
2022/06/25 10:33:57;;;;;;;12.70;4.00;;;;;;;33.06;36.68;99882.50;6183889;23;20075;-63
2022/06/25 10:36:46;;;;;;;8.30;3.75;;;;;;;33.08;36.37;99873.88;6208771;23;20070;-63
2022/06/25 10:39:26;;;;;;;12.65;3.78;;;;;;;33.13;36.03;99884.91;6210059;23;20004;-63
2022/06/25 10:45:00;;;;;;;8.02;3.67;;;;;;;33.12;35.80;99891.59;6209118;23;20019;-63
2022/06/25 10:47:46;;;;;;;13.23;3.95;;;;;;;33.04;36.23;99895.03;6209799;23;20092;-64
2022/06/25 10:50:21;;;;;;;13.90;4.03;;;;;;;33.02;36.13;99897.25;6183183;23;20012;-63
2022/06/25 10:53:07;;;;;;;9.73;3.45;;;;;;;33.01;35.82;99887.28;6207666;23;20012;-64
2022/06/25 10:55:35;;;;;;;8.10;3.70;;;;;;;32.86;36.41;99892.94;6203084;23;20056;-63
2022/06/25 10:58:09;;;;;;;9.93;3.65;;;;;;;32.57;36.66;99904.78;6178124;23;20021;-64
2022/06/25 11:00:55;;;;;;;14.05;3.88;;;;;;;32.43;37.04;99902.94;6179043;23;20450;-63
2022/06/25 11:03:27;;;;;;;6.38;3.30;;;;;;;32.35;37.82;99909.13;6178710;23;20060;-63
2022/06/25 11:05:53;;;;;;;9.00;3.75;;;;;;;32.24;38.33;99921.38;6177837;23;19997;-63
2022/06/25 11:08:18;;;;;;;12.82;4.30;;;;;;;32.16;38.43;99916.41;6178468;23;20012;-63
2022/06/25 11:10:43;;;;;;;11.63;3.88;;;;;;;32.04;38.91;99921.44;6178454;23;20009;-63
2022/06/25 11:13:09;;;;;;;8.35;4.10;;;;;;;32.01;39.58;99920.06;6178567;23;20036;-63
2022/06/25 11:15:39;;;;;;;8.50;3.25;;;;;;;31.88;40.02;99914.28;6178773;23;20004;-63
2022/06/25 11:18:14;;;;;;;6.53;3.50;;;;;;;31.83;40.67;99923.50;6178713;23;20009;-63
2022/06/25 11:20:41;;;;;;;6.63;3.28;;;;;;;31.67;41.72;99896.88;6177593;23;20012;-63
2022/06/25 11:23:11;;;;;;;11.35;3.40;;;;;;;31.77;41.78;99919.03;6178291;23;20331;-63
2022/06/25 11:28:48;;;;;;;8.75;3.38;;;;;;;31.73;42.20;99912.41;6178527;23;20096;-63
2022/06/25 11:31:14;;;;;;;6.30;3.10;;;;;;;31.66;42.38;99903.53;6176461;23;20020;-63
2022/06/25 11:33:40;;;;;;;9.40;3.65;;;;;;;31.63;42.17;99890.22;6176564;23;20005;-62
2022/06/25 11:36:10;;;;;;;7.70;3.03;;;;;;;31.49;42.60;99872.53;6176132;23;20005;-63
2022/06/25 11:38:39;;;;;;;8.60;3.42;;;;;;;31.24;43.15;99860.63;6178446;23;20009;-63
2022/06/25 11:41:04;;;;;;;8.32;2.78;;;;;;;31.25;43.94;99849.28;6177780;23;20009;-63
2022/06/25 11:43:30;;;;;;;11.30;3.80;;;;;;;31.14;44.43;99832.94;6177596;23;20087;-63
2022/06/25 11:45:57;;;;;;;8.95;3.38;;;;;;;31.12;44.25;99822.16;6176296;23;20017;-60
2022/06/25 11:48:28;;;;;;;6.78;2.90;;;;;;;31.12;44.11;99833.22;6177647;23;20012;-63
2022/06/25 11:50:55;;;;;;;12.80;3.10;;;;;;;31.30;44.61;99837.38;6176325;23;20009;-62
2022/06/25 11:53:20;;;;;;;6.53;3.40;;;;;;;31.33;44.55;99842.38;6177763;23;20066;-63